createdAt,value
2018-08-20T00:01:32.227Z,20.03
2018-08-20T00:04:03.005Z,15.70
2018-08-20T00:06:43.537Z,19.00
2018-08-20T00:09:15.332Z,20.50
2018-08-20T00:11:44.507Z,15.30
2018-08-20T00:14:13.502Z,18.40
2018-08-20T00:16:42.219Z,21.20
2018-08-20T00:19:14.334Z,17.03
2018-08-20T00:21:44.773Z,17.03
2018-08-20T00:24:13.544Z,18.70
2018-08-20T00:26:42.221Z,24.73
2018-08-20T00:29:10.797Z,16.67
2018-08-20T00:31:39.712Z,19.40
2018-08-20T00:34:08.299Z,20.53
2018-08-20T00:36:36.942Z,23.17
2018-08-20T00:39:07.978Z,21.57
2018-08-20T00:41:36.649Z,19.60
2018-08-20T00:44:09.215Z,20.60
2018-08-20T00:46:37.865Z,17.80
2018-08-20T00:49:06.604Z,17.00
2018-08-20T00:51:35.396Z,20.50
2018-08-20T00:54:04.212Z,21.40
2018-08-20T00:56:32.927Z,24.50
2018-08-20T00:59:02.423Z,25.97
2018-08-20T01:01:31.399Z,37.90
2018-08-20T01:04:00.633Z,23.43
2018-08-20T01:06:29.611Z,22.87
2018-08-20T01:08:58.325Z,22.40
2018-08-20T01:11:27.002Z,21.00
2018-08-20T01:13:55.643Z,28.20
2018-08-20T01:16:24.352Z,27.43
2018-08-20T01:18:53.207Z,21.10
2018-08-20T01:21:21.842Z,29.50
2018-08-20T01:23:50.557Z,21.30
2018-08-20T01:26:19.353Z,25.83
2018-08-20T01:28:48.068Z,24.80
2018-08-20T01:31:16.788Z,23.10
2018-08-20T01:33:47.808Z,21.03
2018-08-20T01:36:16.526Z,21.80
2018-08-20T01:38:45.250Z,23.83
2018-08-20T01:41:13.924Z,25.43
2018-08-20T01:43:42.602Z,26.97
2018-08-20T01:46:11.277Z,28.00
2018-08-20T01:48:39.991Z,21.33
2018-08-20T01:51:08.707Z,26.00
2018-08-20T01:53:37.383Z,21.93
2018-08-20T01:56:06.063Z,17.00
2018-08-20T01:58:34.779Z,24.60
2018-08-20T02:01:03.550Z,25.93
2018-08-20T02:03:32.705Z,24.53
2018-08-20T02:06:01.401Z,24.80
2018-08-20T02:08:30.096Z,20.07
2018-08-20T02:10:59.271Z,22.73
2018-08-20T02:13:27.951Z,22.43
2018-08-20T02:15:56.722Z,16.97
2018-08-20T02:18:25.398Z,15.93
2018-08-20T02:21:00.716Z,19.70
2018-08-20T02:23:29.448Z,14.40
2018-08-20T02:25:58.084Z,16.33
2018-08-20T02:28:26.820Z,17.60
2018-08-20T02:30:55.455Z,15.80
2018-08-20T02:33:24.971Z,17.67
2018-08-20T02:35:53.626Z,17.70
2018-08-20T02:38:22.365Z,17.97
2018-08-20T02:40:50.988Z,20.00
2018-08-20T02:43:19.753Z,19.77
2018-08-20T02:45:48.428Z,19.10
2018-08-20T02:48:17.164Z,16.67
2018-08-20T02:50:45.781Z,20.10
2018-08-20T02:53:14.514Z,20.97
2018-08-20T02:55:43.210Z,23.97
2018-08-20T02:58:11.927Z,22.03
2018-08-20T03:00:40.582Z,26.23
2018-08-20T03:03:09.320Z,20.10
2018-08-20T03:05:48.551Z,18.27
2018-08-20T03:08:17.210Z,18.70
2018-08-20T03:10:45.903Z,19.27
2018-08-20T03:13:14.639Z,20.50
2018-08-20T03:15:43.274Z,19.93
2018-08-20T03:18:11.950Z,24.10
2018-08-20T03:20:40.605Z,21.40
2018-08-20T03:23:09.210Z,16.70
2018-08-20T03:25:37.876Z,16.83
2018-08-20T03:28:06.593Z,17.70
2018-08-20T03:30:35.287Z,16.77
2018-08-20T03:33:04.142Z,22.17
2018-08-20T03:35:32.779Z,17.80
2018-08-20T03:38:01.553Z,16.93
2018-08-20T03:40:30.909Z,16.07
2018-08-20T03:42:59.764Z,19.93
2018-08-20T03:45:28.439Z,16.20
2018-08-20T03:47:57.158Z,15.80
2018-08-20T03:50:25.873Z,14.70
2018-08-20T03:52:54.486Z,14.00
2018-08-20T03:55:23.182Z,14.20
2018-08-20T03:57:51.861Z,14.50
2018-08-20T04:00:23.772Z,19.40
2018-08-20T04:02:52.928Z,14.80
2018-08-20T04:05:21.623Z,21.03
2018-08-20T04:07:50.419Z,16.10
2018-08-20T04:10:19.034Z,11.63
2018-08-20T04:12:47.730Z,16.20
2018-08-20T04:15:51.222Z,13.87
2018-08-20T04:18:25.237Z,11.30
2018-08-20T04:23:50.081Z,12.27
2018-08-20T04:29:07.046Z,12.20
2018-08-20T04:31:36.489Z,10.87
2018-08-20T04:34:05.559Z,11.33
2018-08-20T04:36:34.488Z,13.00
2018-08-20T04:39:03.271Z,11.10
2018-08-20T04:41:31.916Z,11.53
2018-08-20T04:44:01.466Z,12.20
2018-08-20T04:46:30.149Z,11.90
2018-08-20T04:49:02.265Z,11.97
2018-08-20T04:51:31.205Z,8.77
2018-08-20T04:53:59.813Z,9.40
2018-08-20T04:56:28.403Z,9.17
2018-08-20T04:58:57.123Z,8.43
2018-08-20T05:01:27.079Z,7.10
2018-08-20T05:03:56.138Z,8.37
2018-08-20T05:06:25.910Z,7.93
2018-08-20T05:08:55.585Z,5.90
2018-08-20T05:11:24.160Z,9.43
2018-08-20T05:13:53.015Z,10.47
2018-08-20T05:16:21.790Z,8.40
2018-08-20T05:18:50.548Z,10.90
2018-08-20T05:21:20.461Z,12.80
2018-08-20T05:23:49.677Z,15.33
2018-08-20T05:26:19.032Z,13.00
2018-08-20T05:28:47.607Z,10.23
2018-08-20T05:31:22.902Z,9.40
2018-08-20T05:33:53.324Z,15.57
2018-08-20T05:36:28.131Z,11.63
2018-08-20T05:38:59.127Z,9.83
2018-08-20T05:41:27.937Z,9.00
2018-08-20T05:43:56.697Z,10.57
2018-08-20T05:46:25.294Z,10.07
2018-08-20T05:48:54.369Z,15.13
2018-08-20T05:51:23.124Z,12.13
2018-08-20T05:53:51.918Z,12.20
2018-08-20T05:56:20.997Z,11.40
2018-08-20T05:58:50.169Z,10.73
2018-08-20T06:01:19.261Z,9.20
2018-08-20T06:03:47.961Z,9.97
2018-08-20T06:06:16.697Z,12.53
2018-08-20T06:08:45.576Z,9.50
2018-08-20T06:11:14.318Z,9.63
2018-08-20T06:13:42.981Z,11.60
2018-08-20T06:16:11.689Z,8.20
2018-08-20T06:18:40.844Z,14.43
2018-08-20T06:21:09.767Z,10.67
2018-08-20T06:23:39.084Z,10.53
2018-08-20T06:26:08.838Z,14.87
2018-08-20T06:28:39.166Z,9.77
2018-08-20T06:31:07.889Z,13.70
2018-08-20T06:33:36.884Z,10.30
2018-08-20T06:36:05.820Z,13.40
2018-08-20T06:38:34.815Z,10.93
2018-08-20T06:41:03.615Z,12.77
2018-08-20T06:43:32.245Z,22.50
2018-08-20T06:46:01.262Z,12.93
2018-08-20T06:48:29.876Z,14.77
2018-08-20T06:50:58.772Z,17.23
2018-08-20T06:53:30.290Z,15.73
2018-08-20T06:56:02.702Z,15.80
2018-08-20T06:58:32.808Z,18.10
2018-08-20T07:01:01.695Z,12.63
2018-08-20T07:03:30.897Z,21.93
2018-08-20T07:05:59.684Z,16.97
2018-08-20T07:08:28.280Z,15.13
2018-08-20T07:10:57.495Z,15.33
2018-08-20T07:13:32.040Z,13.40
2018-08-20T07:16:00.725Z,15.30
2018-08-20T07:18:29.420Z,15.13
2018-08-20T07:20:59.335Z,20.17
2018-08-20T07:23:28.843Z,23.90
2018-08-20T07:25:57.552Z,18.83
2018-08-20T07:28:27.781Z,21.37
2018-08-20T07:30:57.097Z,19.90
2018-08-20T07:33:26.250Z,24.20
2018-08-20T07:35:55.386Z,23.47
2018-08-20T07:38:25.410Z,18.67
2018-08-20T07:40:54.977Z,26.20
2018-08-20T07:43:25.551Z,25.47
2018-08-20T07:45:54.707Z,23.17
2018-08-20T07:48:23.789Z,25.80
2018-08-20T07:50:53.580Z,25.87
2018-08-20T07:53:22.354Z,27.03
2018-08-20T07:55:56.708Z,26.37
2018-08-20T07:58:25.856Z,25.80
2018-08-20T08:00:55.620Z,27.23
2018-08-20T08:03:29.734Z,27.43
2018-08-20T08:06:00.483Z,24.80
2018-08-20T08:11:09.159Z,23.77
2018-08-20T08:13:37.897Z,32.10
2018-08-20T08:16:07.208Z,24.33
2018-08-20T08:18:39.545Z,26.10
2018-08-20T08:21:10.640Z,23.13
2018-08-20T08:23:55.429Z,27.37
2018-08-20T08:26:28.784Z,32.73
2018-08-20T08:28:57.765Z,25.13
2018-08-20T08:31:26.821Z,29.70
2018-08-20T08:33:56.457Z,25.03
2018-08-20T08:36:25.052Z,25.50
2018-08-20T08:39:04.847Z,25.07
2018-08-20T08:41:33.600Z,28.20
2018-08-20T08:44:02.449Z,23.03
2018-08-20T08:46:31.250Z,24.20
2018-08-20T08:49:02.002Z,29.83
2018-08-20T08:51:30.774Z,24.40
2018-08-20T08:54:00.698Z,20.83
2018-08-20T08:56:29.793Z,19.20
2018-08-20T08:58:58.529Z,24.73
2018-08-20T09:01:27.204Z,24.53
2018-08-20T09:03:56.856Z,19.20
2018-08-20T09:06:25.655Z,22.20
2018-08-20T09:08:54.611Z,21.50
2018-08-20T09:11:23.447Z,18.40
2018-08-20T09:13:52.306Z,18.83
2018-08-20T09:16:21.416Z,20.80
2018-08-20T09:18:50.332Z,24.97
2018-08-20T09:21:19.007Z,25.43
2018-08-20T09:23:47.843Z,20.53
2018-08-20T09:26:16.679Z,27.40
2018-08-20T09:28:45.357Z,23.90
2018-08-20T09:31:15.349Z,18.17
2018-08-20T09:33:44.264Z,19.20
2018-08-20T09:36:13.000Z,20.20
2018-08-20T09:38:52.174Z,17.20
2018-08-20T09:41:21.334Z,17.53
2018-08-20T09:43:50.074Z,17.90
2018-08-20T09:46:19.540Z,14.90
2018-08-20T09:48:48.303Z,19.30
2018-08-20T09:51:17.011Z,18.23
2018-08-20T09:53:46.211Z,19.30
2018-08-20T09:56:14.962Z,20.53
2018-08-20T09:58:43.647Z,18.00
2018-08-20T10:01:12.532Z,24.20
2018-08-20T10:03:44.799Z,17.80
2018-08-20T10:06:15.105Z,19.47
2018-08-20T10:08:43.958Z,20.07
2018-08-20T10:11:14.834Z,22.37
2018-08-20T10:13:43.509Z,24.13
2018-08-20T10:16:12.283Z,20.87
2018-08-20T10:18:42.559Z,24.43
2018-08-20T10:21:11.326Z,22.93
2018-08-20T10:23:40.211Z,23.90
2018-08-20T10:26:09.225Z,24.77
2018-08-20T10:28:37.813Z,25.20
2018-08-20T10:31:06.676Z,27.90
2018-08-20T10:33:35.518Z,24.10
2018-08-20T10:36:04.729Z,29.17
2018-08-20T10:51:01.823Z,21.77
2018-08-20T10:53:30.743Z,23.47
2018-08-20T10:55:59.438Z,20.77
2018-08-20T10:58:28.143Z,21.10
2018-08-20T11:10:53.080Z,23.13
2018-08-20T11:13:21.857Z,22.33
2018-08-20T11:15:52.812Z,16.80
2018-08-20T11:23:18.119Z,19.90
2018-08-20T11:25:46.813Z,22.90
2018-08-20T11:28:15.650Z,21.53
2018-08-20T11:30:44.346Z,19.60
2018-08-20T11:33:14.540Z,20.23
2018-08-20T11:58:25.000Z,22.87
2018-08-20T12:00:54.133Z,20.57
2018-08-20T12:03:22.926Z,18.40
2018-08-20T12:05:56.502Z,21.47
2018-08-20T12:08:25.964Z,22.80
2018-08-20T12:10:55.092Z,21.65
2018-08-20T12:13:25.045Z,21.97
2018-08-20T12:15:55.494Z,22.43
2018-08-20T12:18:28.597Z,20.63
2018-08-20T12:20:57.873Z,20.13
2018-08-20T12:23:27.203Z,19.00
2018-08-20T12:25:58.669Z,14.30
2018-08-20T12:28:27.679Z,20.80
2018-08-20T12:30:56.684Z,21.40
2018-08-20T12:33:25.293Z,17.07
2018-08-20T12:36:02.908Z,17.77
2018-08-20T12:38:31.548Z,14.23
2018-08-20T12:41:01.944Z,16.50
2018-08-20T12:43:42.876Z,17.10
2018-08-20T12:46:11.530Z,12.73
2018-08-20T12:48:45.647Z,17.30
2018-08-20T12:51:14.717Z,15.70
2018-08-20T12:53:44.012Z,18.83
2018-08-20T12:56:18.308Z,20.17
2018-08-20T12:58:53.051Z,17.60
2018-08-20T13:01:32.910Z,18.93
2018-08-20T13:04:01.972Z,24.43
2018-08-20T13:06:31.990Z,17.10
2018-08-20T13:09:01.633Z,19.70
2018-08-20T13:11:30.227Z,18.20
2018-08-20T13:14:00.508Z,22.50
2018-08-20T13:16:29.510Z,18.33
2018-08-20T13:19:00.461Z,18.17
2018-08-20T13:21:29.442Z,22.53
2018-08-20T13:23:58.037Z,21.27
2018-08-20T13:26:27.175Z,21.30
2018-08-20T13:28:58.447Z,18.50
2018-08-20T13:31:32.064Z,21.73
2018-08-20T13:34:01.502Z,20.70
2018-08-20T13:36:30.467Z,23.90
2018-08-20T13:38:59.850Z,26.37
2018-08-20T13:41:28.825Z,23.00
2018-08-20T13:44:00.187Z,23.50
2018-08-20T13:53:36.856Z,36.80
2018-08-20T13:56:05.484Z,27.13
2018-08-20T13:58:34.358Z,24.20
2018-08-20T14:01:03.383Z,29.27
2018-08-20T14:03:32.089Z,23.77
2018-08-20T14:06:01.120Z,23.27
2018-08-20T14:08:30.377Z,23.50
2018-08-20T14:10:59.111Z,20.97
2018-08-20T14:13:27.825Z,17.47
2018-08-20T14:15:56.622Z,18.97
2018-08-20T14:18:25.262Z,14.63
2018-08-20T14:21:05.453Z,14.70
2018-08-20T14:23:34.415Z,18.20
2018-08-20T14:26:03.163Z,17.60
2018-08-20T14:28:32.222Z,13.40
2018-08-20T14:31:01.434Z,16.07
2018-08-20T14:33:30.542Z,11.33
2018-08-20T14:35:59.488Z,14.43
2018-08-20T14:38:27.985Z,11.10
2018-08-20T14:40:56.584Z,11.77
2018-08-20T14:43:26.199Z,14.27
2018-08-20T14:46:00.127Z,12.03
2018-08-20T14:48:28.745Z,13.07
2018-08-20T14:50:57.452Z,13.63
2018-08-20T14:53:26.255Z,11.30
2018-08-20T14:55:55.019Z,12.37
2018-08-20T14:58:23.924Z,11.83
2018-08-20T15:00:52.579Z,18.37
2018-08-20T15:03:21.281Z,12.30
2018-08-20T15:05:50.471Z,15.33
2018-08-20T15:08:19.106Z,15.53
2018-08-20T15:10:48.402Z,17.87
2018-08-20T15:13:17.037Z,11.50
2018-08-20T15:15:45.840Z,16.73
2018-08-20T15:18:17.548Z,15.40
2018-08-20T15:20:46.104Z,13.70
2018-08-20T15:23:14.838Z,9.67
2018-08-20T15:25:43.555Z,10.20
2018-08-20T15:28:24.610Z,9.93
2018-08-20T15:30:53.253Z,9.13
2018-08-20T15:33:22.007Z,13.10
2018-08-20T15:35:50.721Z,8.57
2018-08-20T15:38:19.311Z,9.00
2018-08-20T15:40:49.186Z,9.60
2018-08-20T15:43:17.848Z,10.40
2018-08-20T15:45:48.426Z,11.33
2018-08-20T15:48:17.393Z,10.60
2018-08-20T15:50:46.409Z,8.90
2018-08-20T15:53:15.984Z,9.43
2018-08-20T15:55:44.865Z,9.33
2018-08-20T15:58:13.596Z,9.40
2018-08-20T16:00:42.192Z,10.57
2018-08-20T16:03:11.348Z,10.30
2018-08-20T16:05:41.593Z,13.20
2018-08-20T16:08:10.437Z,15.40
2018-08-20T16:10:39.112Z,13.07
2018-08-20T16:13:08.279Z,12.50
2018-08-20T16:15:37.044Z,14.17
2018-08-20T16:18:06.160Z,14.00
2018-08-20T16:20:34.937Z,12.80
2018-08-20T16:23:03.824Z,15.20
2018-08-20T16:25:32.545Z,14.50
2018-08-20T16:28:01.208Z,16.10
2018-08-20T16:30:29.984Z,14.37
2018-08-20T16:33:00.332Z,16.00
2018-08-20T16:35:28.946Z,16.67
2018-08-20T16:37:58.001Z,16.57
2018-08-20T16:40:26.797Z,14.83
2018-08-20T16:42:55.473Z,12.67
2018-08-20T16:45:24.245Z,13.60
2018-08-20T16:47:53.963Z,13.30
2018-08-20T16:50:22.660Z,9.03
2018-08-20T16:52:51.734Z,10.97
2018-08-20T16:55:20.449Z,8.90
2018-08-20T16:57:49.397Z,11.47
2018-08-20T17:00:18.383Z,10.30
2018-08-20T17:02:47.269Z,12.90
2018-08-20T17:05:16.510Z,11.67
2018-08-20T17:07:45.372Z,11.27
2018-08-20T17:10:14.403Z,13.70
2018-08-20T17:12:43.478Z,15.63
2018-08-20T17:15:17.814Z,10.27
2018-08-20T17:17:46.392Z,12.90
2018-08-20T17:20:15.965Z,10.00
2018-08-20T17:22:44.680Z,10.10
2018-08-20T17:25:13.277Z,12.23
2018-08-20T17:27:50.265Z,10.93
2018-08-20T17:30:24.125Z,8.07
2018-08-20T17:32:53.602Z,7.40
2018-08-20T17:35:22.297Z,7.50
2018-08-20T17:40:38.247Z,6.00
2018-08-20T17:43:08.063Z,5.50
2018-08-20T17:45:36.839Z,7.37
2018-08-20T17:48:06.129Z,5.90
2018-08-20T17:50:42.449Z,5.30
2018-08-20T17:53:11.150Z,5.87
2018-08-20T17:55:39.800Z,4.87
2018-08-20T17:58:08.712Z,3.83
2018-08-20T18:00:43.535Z,4.13
2018-08-20T18:03:19.329Z,3.67
2018-08-20T18:05:53.341Z,4.13
2018-08-20T18:08:24.004Z,3.73
2018-08-20T18:10:53.312Z,5.40
2018-08-20T18:13:34.947Z,6.30
2018-08-20T18:16:06.946Z,3.50
2018-08-20T18:18:36.645Z,3.73
2018-08-20T18:21:05.633Z,3.53
2018-08-20T18:23:35.273Z,3.90
2018-08-20T18:26:05.303Z,4.37
2018-08-20T18:28:46.719Z,5.40
2018-08-20T18:31:23.054Z,6.43
2018-08-20T18:33:51.742Z,4.70
2018-08-20T18:36:21.598Z,4.43
2018-08-20T18:38:53.241Z,4.73
2018-08-20T18:41:33.338Z,7.10
2018-08-20T18:44:02.073Z,8.47
2018-08-20T18:46:33.749Z,3.87
2018-08-20T18:49:02.920Z,4.27
2018-08-20T18:51:55.581Z,4.43
2018-08-20T18:54:25.781Z,4.30
2018-08-20T18:57:08.905Z,4.20
2018-08-20T19:04:07.175Z,5.17
2018-08-20T19:06:35.830Z,4.20
2018-08-20T19:09:05.266Z,5.33
2018-08-20T19:11:34.242Z,6.03
2018-08-20T19:14:07.091Z,5.23
2018-08-20T19:16:37.992Z,6.13
2018-08-20T19:19:07.928Z,5.27
2018-08-20T19:21:39.084Z,6.27
2018-08-20T19:24:11.884Z,6.80
2018-08-20T19:26:40.644Z,5.83
2018-08-20T19:29:28.228Z,5.43
2018-08-20T19:31:56.865Z,5.80
2018-08-20T19:34:25.740Z,6.30
2018-08-20T19:36:54.416Z,7.57
2018-08-20T19:39:23.052Z,5.40
2018-08-20T19:41:51.732Z,5.20
2018-08-20T19:44:20.407Z,5.20
2018-08-20T19:49:27.155Z,7.10
2018-08-20T19:51:55.889Z,5.37
2018-08-20T19:54:24.609Z,5.63
2018-08-20T19:56:53.240Z,7.07
2018-08-20T19:59:27.595Z,5.70
2018-08-20T20:01:56.611Z,8.20
2018-08-20T20:04:25.417Z,5.43
2018-08-20T20:06:54.403Z,5.37
2018-08-20T20:09:23.118Z,6.83
2018-08-20T20:11:51.974Z,5.63
2018-08-20T20:14:20.749Z,8.80
2018-08-20T20:16:55.304Z,7.13
2018-08-20T20:19:23.920Z,9.43
2018-08-20T20:21:52.656Z,8.67
2018-08-20T20:24:21.430Z,6.20
2018-08-20T20:26:50.187Z,6.73
2018-08-20T20:29:18.979Z,5.30
2018-08-20T20:31:47.758Z,7.10
2018-08-20T20:34:16.574Z,5.93
2018-08-20T20:36:45.211Z,8.57
2018-08-20T20:39:13.892Z,9.03
2018-08-20T20:41:42.541Z,9.10
2018-08-20T20:44:11.816Z,7.43
2018-08-20T20:46:40.592Z,6.73
2018-08-20T20:49:09.367Z,6.00
2018-08-20T20:51:38.062Z,11.10
2018-08-20T20:54:06.738Z,5.27
2018-08-20T20:56:35.593Z,6.60
2018-08-20T20:59:04.349Z,7.97
2018-08-20T21:01:33.044Z,12.40
2018-08-20T21:04:04.721Z,8.40
2018-08-20T21:06:40.398Z,5.93
2018-08-20T21:09:11.031Z,7.47
2018-08-20T21:11:39.966Z,6.50
2018-08-20T21:14:09.058Z,5.80
2018-08-20T21:16:37.563Z,6.63
2018-08-20T21:19:06.560Z,4.87
2018-08-20T21:21:35.248Z,5.37
2018-08-20T21:24:06.784Z,7.43
2018-08-20T21:26:35.500Z,7.63
2018-08-20T21:29:04.197Z,9.93
2018-08-20T21:31:37.352Z,9.67
2018-08-20T21:34:06.049Z,5.20
2018-08-20T21:36:34.681Z,6.03
2018-08-20T21:39:03.499Z,7.73
2018-08-20T21:41:32.199Z,7.30
2018-08-20T21:44:00.848Z,10.73
2018-08-20T21:46:29.464Z,7.40
2018-08-20T21:48:58.181Z,5.80
2018-08-20T21:51:29.715Z,6.03
2018-08-20T21:53:58.604Z,8.90
2018-08-20T21:56:38.586Z,8.50
2018-08-20T21:59:07.381Z,4.93
2018-08-20T22:01:36.096Z,6.50
2018-08-20T22:04:08.972Z,7.00
2018-08-20T22:06:37.607Z,4.43
2018-08-20T22:09:06.725Z,5.07
2018-08-20T22:11:35.278Z,5.07
2018-08-20T22:14:03.934Z,5.73
2018-08-20T22:16:32.628Z,5.10
2018-08-20T22:19:01.285Z,7.50
2018-08-20T22:21:30.000Z,12.10
2018-08-20T22:24:00.579Z,5.50
2018-08-20T22:26:29.351Z,7.93
2018-08-20T22:28:58.927Z,4.63
2018-08-20T22:31:28.156Z,5.87
2018-08-20T22:34:02.123Z,3.87
2018-08-20T22:36:31.994Z,4.63
2018-08-20T22:39:01.908Z,6.37
2018-08-20T22:41:31.378Z,4.67
2018-08-20T22:44:00.020Z,4.13
2018-08-20T22:46:28.735Z,4.77
2018-08-20T22:48:58.671Z,4.07
2018-08-20T22:51:28.328Z,6.50
2018-08-20T22:53:59.282Z,5.17
2018-08-20T22:56:32.737Z,6.00
2018-08-20T22:59:09.292Z,4.87
2018-08-20T23:01:37.989Z,6.97
2018-08-20T23:04:07.046Z,4.73
2018-08-20T23:06:35.699Z,5.07
2018-08-20T23:09:20.833Z,6.57
2018-08-20T23:11:49.569Z,4.97
2018-08-20T23:14:18.232Z,5.80
2018-08-20T23:16:49.641Z,4.40
2018-08-20T23:19:18.576Z,8.20
2018-08-20T23:21:48.116Z,6.03
2018-08-20T23:24:17.607Z,5.73
2018-08-20T23:26:46.335Z,5.87
2018-08-20T23:29:15.118Z,7.63
2018-08-20T23:31:43.775Z,5.07
2018-08-20T23:34:13.730Z,6.07
2018-08-20T23:36:43.006Z,6.33
2018-08-20T23:39:14.579Z,5.03
2018-08-20T23:41:43.296Z,6.93
2018-08-20T23:44:13.551Z,4.00
2018-08-20T23:46:44.399Z,4.30
2018-08-20T23:49:13.069Z,4.00
2018-08-20T23:51:41.778Z,5.30
2018-08-20T23:54:11.708Z,3.90
2018-08-20T23:56:40.624Z,6.27
2018-08-20T23:59:09.628Z,7.03
